Old Nevada, Nevada
Current Conditions -  °F | °C
As of 9:56 PM on Monday 20 Oct 2014 (Local Time) from KHND Reporting Station
Clear Clear  
Wind Chill: 71°   Ceiling: Unl
Heat Index: 71°   Visibility: 10mi
Dew Point: 40°   Wind: 6mph
Humidity: 32%   Direction: 190°S
Pressure: 29.88"   Gusts: NA
Location:  35.8437°N, 115.134°W
Report Text: KHND 210456Z AUTO 19005KT 10SM CLR 22/04 A2988 RMK AO2 T02160044 SLP101
Loading
Personal Weather Stations






























Interactive Weather Map
Tropical Storm Tracking
New forecast layout! Learn more

10-Day Weather Forecast

Advertisements
Track Severe Weather on mobile